sensor_id;sensor_type;location;lat;lon;timestamp;temperature;humidity
38237;DHT22;50101;49.438;11.098;2022-10-16T00:01:09;18.80;72.00
38237;DHT22;50101;49.438;11.098;2022-10-16T00:03:39;18.70;71.90
38237;DHT22;50101;49.438;11.098;2022-10-16T00:06:06;18.80;72.00
38237;DHT22;50101;49.438;11.098;2022-10-16T00:08:34;18.80;71.30
38237;DHT22;50101;49.438;11.098;2022-10-16T00:11:19;18.80;71.90
38237;DHT22;50101;49.438;11.098;2022-10-16T00:13:47;18.80;71.90
38237;DHT22;50101;49.438;11.098;2022-10-16T00:16:15;18.80;72.00
38237;DHT22;50101;49.438;11.098;2022-10-16T00:18:42;18.80;71.90
38237;DHT22;50101;49.438;11.098;2022-10-16T00:21:18;18.80;71.90
38237;DHT22;50101;49.438;11.098;2022-10-16T00:23:45;18.80;71.90
38237;DHT22;50101;49.438;11.098;2022-10-16T00:26:13;18.80;71.90
38237;DHT22;50101;49.438;11.098;2022-10-16T00:28:41;18.80;71.90
38237;DHT22;50101;49.438;11.098;2022-10-16T00:31:10;18.80;71.90
38237;DHT22;50101;49.438;11.098;2022-10-16T00:33:38;18.80;71.80
38237;DHT22;50101;49.438;11.098;2022-10-16T00:36:07;18.80;71.90
38237;DHT22;50101;49.438;11.098;2022-10-16T00:38:34;18.80;71.90
38237;DHT22;50101;49.438;11.098;2022-10-16T00:41:01;18.80;71.90
38237;DHT22;50101;49.438;11.098;2022-10-16T00:43:39;18.80;71.80
38237;DHT22;50101;49.438;11.098;2022-10-16T00:46:23;18.80;71.90
38237;DHT22;50101;49.438;11.098;2022-10-16T00:51:40;18.80;71.20
38237;DHT22;50101;49.438;11.098;2022-10-16T00:54:22;18.80;71.20
38237;DHT22;50101;49.438;11.098;2022-10-16T00:56:50;18.80;71.90
38237;DHT22;50101;49.438;11.098;2022-10-16T00:59:24;18.80;71.80
38237;DHT22;50101;49.438;11.098;2022-10-16T01:01:53;18.80;71.90
38237;DHT22;50101;49.438;11.098;2022-10-16T01:04:20;18.80;71.90
38237;DHT22;50101;49.438;11.098;2022-10-16T01:07:03;18.80;71.80
38237;DHT22;50101;49.438;11.098;2022-10-16T01:09:37;18.80;71.80
38237;DHT22;50101;49.438;11.098;2022-10-16T01:12:14;18.80;71.80
38237;DHT22;50101;49.438;11.098;2022-10-16T01:14:54;18.80;71.80
38237;DHT22;50101;49.438;11.098;2022-10-16T01:17:43;18.80;71.80
38237;DHT22;50101;49.438;11.098;2022-10-16T01:20:20;18.80;71.80
38237;DHT22;50101;49.438;11.098;2022-10-16T01:23:08;18.80;71.80
38237;DHT22;50101;49.438;11.098;2022-10-16T01:28:21;18.80;71.80
38237;DHT22;50101;49.438;11.098;2022-10-16T01:30:50;18.80;71.70
38237;DHT22;50101;49.438;11.098;2022-10-16T01:33:26;18.80;71.70
38237;DHT22;50101;49.438;11.098;2022-10-16T01:36:06;18.80;71.80
38237;DHT22;50101;49.438;11.098;2022-10-16T01:38:38;18.80;71.70
38237;DHT22;50101;49.438;11.098;2022-10-16T01:41:14;18.80;71.70
38237;DHT22;50101;49.438;11.098;2022-10-16T01:43:46;18.80;71.70
38237;DHT22;50101;49.438;11.098;2022-10-16T01:46:18;18.80;71.70
38237;DHT22;50101;49.438;11.098;2022-10-16T01:48:46;18.80;71.10
38237;DHT22;50101;49.438;11.098;2022-10-16T01:51:15;18.80;71.70
38237;DHT22;50101;49.438;11.098;2022-10-16T01:53:48;18.80;71.70
38237;DHT22;50101;49.438;11.098;2022-10-16T01:56:17;18.80;71.70
38237;DHT22;50101;49.438;11.098;2022-10-16T01:58:54;18.80;71.60
38237;DHT22;50101;49.438;11.098;2022-10-16T02:01:23;18.80;71.70
38237;DHT22;50101;49.438;11.098;2022-10-16T02:03:54;18.80;71.70
38237;DHT22;50101;49.438;11.098;2022-10-16T02:06:23;18.80;71.60
38237;DHT22;50101;49.438;11.098;2022-10-16T02:08:51;18.80;71.60
38237;DHT22;50101;49.438;11.098;2022-10-16T02:11:18;18.80;71.60
38237;DHT22;50101;49.438;11.098;2022-10-16T02:13:53;18.80;71.60
38237;DHT22;50101;49.438;11.098;2022-10-16T02:16:34;18.80;71.60
38237;DHT22;50101;49.438;11.098;2022-10-16T02:19:02;18.80;72.00
38237;DHT22;50101;49.438;11.098;2022-10-16T02:21:35;18.80;71.50
38237;DHT22;50101;49.438;11.098;2022-10-16T02:24:08;18.80;71.60
38237;DHT22;50101;49.438;11.098;2022-10-16T02:26:45;18.80;71.60
38237;DHT22;50101;49.438;11.098;2022-10-16T02:29:17;18.80;71.50
38237;DHT22;50101;49.438;11.098;2022-10-16T02:31:49;18.80;71.50
38237;DHT22;50101;49.438;11.098;2022-10-16T02:34:18;18.80;71.60
38237;DHT22;50101;49.438;11.098;2022-10-16T02:36:48;18.80;71.70
38237;DHT22;50101;49.438;11.098;2022-10-16T02:39:17;18.80;70.90
38237;DHT22;50101;49.438;11.098;2022-10-16T02:41:44;18.80;71.50
38237;DHT22;50101;49.438;11.098;2022-10-16T02:44:11;18.80;70.90
38237;DHT22;50101;49.438;11.098;2022-10-16T02:46:38;18.80;71.50
38237;DHT22;50101;49.438;11.098;2022-10-16T02:49:05;18.80;71.50
38237;DHT22;50101;49.438;11.098;2022-10-16T02:51:31;18.90;71.60
38237;DHT22;50101;49.438;11.098;2022-10-16T02:53:58;18.80;70.90
38237;DHT22;50101;49.438;11.098;2022-10-16T02:56:24;18.80;71.60
38237;DHT22;50101;49.438;11.098;2022-10-16T02:58:51;18.80;71.50
38237;DHT22;50101;49.438;11.098;2022-10-16T03:01:18;18.80;71.50
38237;DHT22;50101;49.438;11.098;2022-10-16T03:03:44;18.80;71.50
38237;DHT22;50101;49.438;11.098;2022-10-16T03:06:11;18.80;71.50
38237;DHT22;50101;49.438;11.098;2022-10-16T03:08:38;19.20;71.90
38237;DHT22;50101;49.438;11.098;2022-10-16T03:11:04;18.80;71.40
38237;DHT22;50101;49.438;11.098;2022-10-16T03:13:31;18.80;71.40
38237;DHT22;50101;49.438;11.098;2022-10-16T03:15:58;18.80;71.50
38237;DHT22;50101;49.438;11.098;2022-10-16T03:18:25;18.80;70.80
38237;DHT22;50101;49.438;11.098;2022-10-16T03:20:51;18.80;71.40
38237;DHT22;50101;49.438;11.098;2022-10-16T03:23:18;18.80;71.50
38237;DHT22;50101;49.438;11.098;2022-10-16T03:25:44;18.80;71.40
38237;DHT22;50101;49.438;11.098;2022-10-16T03:28:13;18.80;71.50
38237;DHT22;50101;49.438;11.098;2022-10-16T03:30:40;18.80;71.50
38237;DHT22;50101;49.438;11.098;2022-10-16T03:33:07;18.80;71.50
38237;DHT22;50101;49.438;11.098;2022-10-16T03:35:33;18.80;71.40
38237;DHT22;50101;49.438;11.098;2022-10-16T03:38:00;18.80;70.80
38237;DHT22;50101;49.438;11.098;2022-10-16T03:40:27;18.80;71.40
38237;DHT22;50101;49.438;11.098;2022-10-16T03:42:54;18.80;71.40
38237;DHT22;50101;49.438;11.098;2022-10-16T03:45:24;18.80;71.40
38237;DHT22;50101;49.438;11.098;2022-10-16T03:47:51;18.80;70.80
38237;DHT22;50101;49.438;11.098;2022-10-16T03:50:17;18.80;71.30
38237;DHT22;50101;49.438;11.098;2022-10-16T03:52:44;18.80;71.30
38237;DHT22;50101;49.438;11.098;2022-10-16T03:55:11;18.80;71.30
38237;DHT22;50101;49.438;11.098;2022-10-16T03:57:37;18.80;71.30
38237;DHT22;50101;49.438;11.098;2022-10-16T04:00:05;18.80;71.40
38237;DHT22;50101;49.438;11.098;2022-10-16T04:02:31;18.80;71.30
38237;DHT22;50101;49.438;11.098;2022-10-16T04:04:58;18.80;71.30
38237;DHT22;50101;49.438;11.098;2022-10-16T04:07:25;18.80;71.40
38237;DHT22;50101;49.438;11.098;2022-10-16T04:09:52;18.90;71.40
38237;DHT22;50101;49.438;11.098;2022-10-16T04:12:18;18.80;71.30
38237;DHT22;50101;49.438;11.098;2022-10-16T04:14:45;18.80;71.30
38237;DHT22;50101;49.438;11.098;2022-10-16T04:17:11;18.80;71.30
38237;DHT22;50101;49.438;11.098;2022-10-16T04:19:38;18.80;71.30
38237;DHT22;50101;49.438;11.098;2022-10-16T04:22:05;18.80;71.30
38237;DHT22;50101;49.438;11.098;2022-10-16T04:24:31;18.80;71.30
38237;DHT22;50101;49.438;11.098;2022-10-16T04:26:58;18.80;71.30
38237;DHT22;50101;49.438;11.098;2022-10-16T04:29:24;18.80;70.70
38237;DHT22;50101;49.438;11.098;2022-10-16T04:31:51;19.30;71.80
38237;DHT22;50101;49.438;11.098;2022-10-16T04:34:18;18.80;71.30
38237;DHT22;50101;49.438;11.098;2022-10-16T04:36:47;18.80;71.30
38237;DHT22;50101;49.438;11.098;2022-10-16T04:39:16;18.80;70.60
38237;DHT22;50101;49.438;11.098;2022-10-16T04:41:42;18.80;71.30
38237;DHT22;50101;49.438;11.098;2022-10-16T04:44:09;18.80;70.70
38237;DHT22;50101;49.438;11.098;2022-10-16T04:46:36;18.80;71.20
38237;DHT22;50101;49.438;11.098;2022-10-16T04:49:02;18.80;71.20
38237;DHT22;50101;49.438;11.098;2022-10-16T04:51:29;18.80;71.30
38237;DHT22;50101;49.438;11.098;2022-10-16T04:53:56;21.90;73.80
38237;DHT22;50101;49.438;11.098;2022-10-16T04:56:22;18.80;71.20
38237;DHT22;50101;49.438;11.098;2022-10-16T04:58:49;18.80;71.20
38237;DHT22;50101;49.438;11.098;2022-10-16T05:01:16;16.60;68.90
38237;DHT22;50101;49.438;11.098;2022-10-16T05:03:42;18.80;71.20
38237;DHT22;50101;49.438;11.098;2022-10-16T05:06:09;18.80;71.20
38237;DHT22;50101;49.438;11.098;2022-10-16T05:08:36;18.80;71.20
38237;DHT22;50101;49.438;11.098;2022-10-16T05:11:03;18.80;71.20
38237;DHT22;50101;49.438;11.098;2022-10-16T05:13:29;18.80;71.20
38237;DHT22;50101;49.438;11.098;2022-10-16T05:15:56;18.80;71.20
38237;DHT22;50101;49.438;11.098;2022-10-16T05:18:26;18.80;70.50
38237;DHT22;50101;49.438;11.098;2022-10-16T05:20:53;18.80;71.20
38237;DHT22;50101;49.438;11.098;2022-10-16T05:23:19;18.80;71.10
38237;DHT22;50101;49.438;11.098;2022-10-16T05:25:56;18.80;71.20
38237;DHT22;50101;49.438;11.098;2022-10-16T05:28:25;18.80;71.20
38237;DHT22;50101;49.438;11.098;2022-10-16T05:30:52;18.80;71.20
38237;DHT22;50101;49.438;11.098;2022-10-16T05:33:24;18.50;70.90
38237;DHT22;50101;49.438;11.098;2022-10-16T05:35:51;18.80;71.20
38237;DHT22;50101;49.438;11.098;2022-10-16T05:38:18;18.80;71.10
38237;DHT22;50101;49.438;11.098;2022-10-16T05:40:50;18.80;71.20
38237;DHT22;50101;49.438;11.098;2022-10-16T05:43:18;18.80;71.10
38237;DHT22;50101;49.438;11.098;2022-10-16T05:48:23;18.80;71.20
38237;DHT22;50101;49.438;11.098;2022-10-16T05:51:06;18.80;71.10
38237;DHT22;50101;49.438;11.098;2022-10-16T05:53:35;18.80;71.10
38237;DHT22;50101;49.438;11.098;2022-10-16T05:56:03;18.80;71.20
38237;DHT22;50101;49.438;11.098;2022-10-16T05:58:32;18.80;71.10
38237;DHT22;50101;49.438;11.098;2022-10-16T06:01:02;18.80;71.10
38237;DHT22;50101;49.438;11.098;2022-10-16T06:03:29;18.80;71.20
38237;DHT22;50101;49.438;11.098;2022-10-16T06:05:55;18.80;71.10
38237;DHT22;50101;49.438;11.098;2022-10-16T06:08:22;18.80;71.10
38237;DHT22;50101;49.438;11.098;2022-10-16T06:11:03;18.80;71.10
38237;DHT22;50101;49.438;11.098;2022-10-16T06:13:30;18.80;71.10
38237;DHT22;50101;49.438;11.098;2022-10-16T06:15:58;18.80;71.10
38237;DHT22;50101;49.438;11.098;2022-10-16T06:18:26;18.80;71.10
38237;DHT22;50101;49.438;11.098;2022-10-16T06:20:54;18.80;71.00
38237;DHT22;50101;49.438;11.098;2022-10-16T06:23:20;18.80;71.10
38237;DHT22;50101;49.438;11.098;2022-10-16T06:25:47;18.80;71.00
38237;DHT22;50101;49.438;11.098;2022-10-16T06:28:14;18.80;71.10
38237;DHT22;50101;49.438;11.098;2022-10-16T06:30:42;18.80;70.40
38237;DHT22;50101;49.438;11.098;2022-10-16T06:33:12;18.80;71.00
38237;DHT22;50101;49.438;11.098;2022-10-16T06:35:39;18.80;70.90
38237;DHT22;50101;49.438;11.098;2022-10-16T06:38:05;18.80;70.90
38237;DHT22;50101;49.438;11.098;2022-10-16T06:40:32;18.80;70.90
38237;DHT22;50101;49.438;11.098;2022-10-16T06:42:59;18.80;70.90
38237;DHT22;50101;49.438;11.098;2022-10-16T06:45:25;18.80;71.00
38237;DHT22;50101;49.438;11.098;2022-10-16T06:47:52;18.80;70.90
38237;DHT22;50101;49.438;11.098;2022-10-16T06:50:18;18.80;70.90
38237;DHT22;50101;49.438;11.098;2022-10-16T06:52:45;18.80;70.90
38237;DHT22;50101;49.438;11.098;2022-10-16T06:55:12;18.80;70.80
38237;DHT22;50101;49.438;11.098;2022-10-16T06:57:38;18.80;70.70
38237;DHT22;50101;49.438;11.098;2022-10-16T07:00:06;18.80;70.80
38237;DHT22;50101;49.438;11.098;2022-10-16T07:02:32;18.80;70.80
38237;DHT22;50101;49.438;11.098;2022-10-16T07:04:59;18.90;71.00
38237;DHT22;50101;49.438;11.098;2022-10-16T07:07:25;18.80;70.90
38237;DHT22;50101;49.438;11.098;2022-10-16T07:12:20;18.80;70.20
38237;DHT22;50101;49.438;11.098;2022-10-16T07:14:46;18.80;70.90
38237;DHT22;50101;49.438;11.098;2022-10-16T07:17:13;18.80;70.90
38237;DHT22;50101;49.438;11.098;2022-10-16T07:19:39;18.80;70.90
38237;DHT22;50101;49.438;11.098;2022-10-16T07:22:06;18.80;70.90
38237;DHT22;50101;49.438;11.098;2022-10-16T07:24:33;17.10;69.20
38237;DHT22;50101;49.438;11.098;2022-10-16T07:26:59;18.80;70.90
38237;DHT22;50101;49.438;11.098;2022-10-16T07:29:26;18.80;70.80
38237;DHT22;50101;49.438;11.098;2022-10-16T07:31:53;18.80;70.80
38237;DHT22;50101;49.438;11.098;2022-10-16T07:34:21;18.80;70.90
38237;DHT22;50101;49.438;11.098;2022-10-16T07:36:51;18.80;70.90
38237;DHT22;50101;49.438;11.098;2022-10-16T07:39:18;18.90;70.90
38237;DHT22;50101;49.438;11.098;2022-10-16T07:41:44;18.80;70.80
38237;DHT22;50101;49.438;11.098;2022-10-16T07:44:11;18.80;70.20
38237;DHT22;50101;49.438;11.098;2022-10-16T07:46:38;18.80;70.10
38237;DHT22;50101;49.438;11.098;2022-10-16T07:49:04;18.80;70.70
38237;DHT22;50101;49.438;11.098;2022-10-16T07:51:31;21.70;73.70
38237;DHT22;50101;49.438;11.098;2022-10-16T07:53:58;18.80;70.70
38237;DHT22;50101;49.438;11.098;2022-10-16T07:56:25;18.80;70.70
38237;DHT22;50101;49.438;11.098;2022-10-16T07:58:52;18.80;70.70
38237;DHT22;50101;49.438;11.098;2022-10-16T08:01:18;18.80;70.70
38237;DHT22;50101;49.438;11.098;2022-10-16T08:03:49;18.80;70.90
38237;DHT22;50101;49.438;11.098;2022-10-16T08:06:18;18.80;71.40
38237;DHT22;50101;49.438;11.098;2022-10-16T08:08:50;18.90;71.30
38237;DHT22;50101;49.438;11.098;2022-10-16T08:11:17;18.90;71.30
38237;DHT22;50101;49.438;11.098;2022-10-16T08:13:44;18.90;70.80
38237;DHT22;50101;49.438;11.098;2022-10-16T08:16:11;18.90;71.40
38237;DHT22;50101;49.438;11.098;2022-10-16T08:18:39;19.00;71.50
38237;DHT22;50101;49.438;11.098;2022-10-16T08:21:07;19.00;71.50
38237;DHT22;50101;49.438;11.098;2022-10-16T08:23:34;19.00;71.50
38237;DHT22;50101;49.438;11.098;2022-10-16T08:26:06;19.00;71.40
38237;DHT22;50101;49.438;11.098;2022-10-16T08:28:33;19.00;71.60
38237;DHT22;50101;49.438;11.098;2022-10-16T08:31:12;18.90;71.40
38237;DHT22;50101;49.438;11.098;2022-10-16T08:33:41;18.90;71.50
38237;DHT22;50101;49.438;11.098;2022-10-16T08:36:09;19.00;71.50
38237;DHT22;50101;49.438;11.098;2022-10-16T08:38:37;19.00;71.50
38237;DHT22;50101;49.438;11.098;2022-10-16T08:41:37;19.00;71.50
38237;DHT22;50101;49.438;11.098;2022-10-16T08:47:20;19.00;71.70
38237;DHT22;50101;49.438;11.098;2022-10-16T08:50:08;19.00;71.40
38237;DHT22;50101;49.438;11.098;2022-10-16T08:52:40;19.00;71.90
38237;DHT22;50101;49.438;11.098;2022-10-16T08:55:46;19.00;71.80
38237;DHT22;50101;49.438;11.098;2022-10-16T08:58:26;19.00;72.00
38237;DHT22;50101;49.438;11.098;2022-10-16T09:00:56;19.00;72.40
38237;DHT22;50101;49.438;11.098;2022-10-16T09:06:17;19.00;72.30
38237;DHT22;50101;49.438;11.098;2022-10-16T09:11:53;19.00;72.00
38237;DHT22;50101;49.438;11.098;2022-10-16T09:20:22;19.00;71.50
38237;DHT22;50101;49.438;11.098;2022-10-16T09:25:49;19.00;72.20
38237;DHT22;50101;49.438;11.098;2022-10-16T09:28:17;19.10;71.50
38237;DHT22;50101;49.438;11.098;2022-10-16T09:30:45;19.00;72.10
38237;DHT22;50101;49.438;11.098;2022-10-16T09:33:12;19.10;72.20
38237;DHT22;50101;49.438;11.098;2022-10-16T09:35:44;19.10;72.10
38237;DHT22;50101;49.438;11.098;2022-10-16T09:38:40;19.20;71.50
38237;DHT22;50101;49.438;11.098;2022-10-16T09:41:21;21.40;74.40
38237;DHT22;50101;49.438;11.098;2022-10-16T09:44:00;19.20;72.50
38237;DHT22;50101;49.438;11.098;2022-10-16T09:46:35;19.20;72.30
38237;DHT22;50101;49.438;11.098;2022-10-16T09:49:18;19.10;72.40
38237;DHT22;50101;49.438;11.098;2022-10-16T09:51:45;19.10;72.40
38237;DHT22;50101;49.438;11.098;2022-10-16T09:54:15;19.10;72.60
38237;DHT22;50101;49.438;11.098;2022-10-16T09:56:43;19.20;72.80
38237;DHT22;50101;49.438;11.098;2022-10-16T09:59:17;19.10;72.70
38237;DHT22;50101;49.438;11.098;2022-10-16T10:01:49;19.10;72.90
38237;DHT22;50101;49.438;11.098;2022-10-16T10:04:18;19.10;72.80
38237;DHT22;50101;49.438;11.098;2022-10-16T10:06:52;19.10;72.80
38237;DHT22;50101;49.438;11.098;2022-10-16T10:09:26;19.20;72.30
38237;DHT22;50101;49.438;11.098;2022-10-16T10:11:58;19.20;72.90
38237;DHT22;50101;49.438;11.098;2022-10-16T10:14:40;19.20;72.80
38237;DHT22;50101;49.438;11.098;2022-10-16T10:17:16;19.20;72.90
38237;DHT22;50101;49.438;11.098;2022-10-16T10:33:43;19.30;72.60
38237;DHT22;50101;49.438;11.098;2022-10-16T10:36:35;19.20;72.60
38237;DHT22;50101;49.438;11.098;2022-10-16T10:39:30;19.20;72.90
38237;DHT22;50101;49.438;11.098;2022-10-16T10:44:55;19.30;73.00
38237;DHT22;50101;49.438;11.098;2022-10-16T10:47:54;19.30;73.00
38237;DHT22;50101;49.438;11.098;2022-10-16T10:50:43;19.30;73.00
38237;DHT22;50101;49.438;11.098;2022-10-16T10:53:33;19.30;73.00
38237;DHT22;50101;49.438;11.098;2022-10-16T11:01:22;19.30;72.90
38237;DHT22;50101;49.438;11.098;2022-10-16T11:04:15;19.20;72.90
38237;DHT22;50101;49.438;11.098;2022-10-16T11:06:52;19.30;73.00
38237;DHT22;50101;49.438;11.098;2022-10-16T11:09:28;19.20;72.90
38237;DHT22;50101;49.438;11.098;2022-10-16T11:12:06;19.30;73.30
38237;DHT22;50101;49.438;11.098;2022-10-16T11:14:42;19.20;73.00
38237;DHT22;50101;49.438;11.098;2022-10-16T11:17:32;19.30;72.50
38237;DHT22;50101;49.438;11.098;2022-10-16T11:20:11;19.20;73.00
38237;DHT22;50101;49.438;11.098;2022-10-16T11:22:47;19.30;73.30
38237;DHT22;50101;49.438;11.098;2022-10-16T11:25:27;19.20;73.00
38237;DHT22;50101;49.438;11.098;2022-10-16T11:28:06;19.30;73.10
38237;DHT22;50101;49.438;11.098;2022-10-16T11:30:52;19.20;73.40
38237;DHT22;50101;49.438;11.098;2022-10-16T11:33:30;19.20;73.10
38237;DHT22;50101;49.438;11.098;2022-10-16T11:36:25;19.20;73.20
38237;DHT22;50101;49.438;11.098;2022-10-16T11:39:09;19.20;73.30
38237;DHT22;50101;49.438;11.098;2022-10-16T11:42:10;19.20;73.20
38237;DHT22;50101;49.438;11.098;2022-10-16T11:47:43;19.20;73.30
38237;DHT22;50101;49.438;11.098;2022-10-16T11:56:12;19.20;73.20
38237;DHT22;50101;49.438;11.098;2022-10-16T11:58:59;19.20;72.50
38237;DHT22;50101;49.438;11.098;2022-10-16T12:04:29;19.20;73.10
38237;DHT22;50101;49.438;11.098;2022-10-16T12:07:10;19.20;73.50
38237;DHT22;50101;49.438;11.098;2022-10-16T12:09:39;19.30;73.60
38237;DHT22;50101;49.438;11.098;2022-10-16T12:12:37;19.30;73.60
38237;DHT22;50101;49.438;11.098;2022-10-16T12:15:22;19.30;73.50
38237;DHT22;50101;49.438;11.098;2022-10-16T12:18:18;19.30;73.40
38237;DHT22;50101;49.438;11.098;2022-10-16T12:20:57;19.40;73.40
38237;DHT22;50101;49.438;11.098;2022-10-16T12:23:27;19.40;73.50
38237;DHT22;50101;49.438;11.098;2022-10-16T12:25:59;19.30;73.30
38237;DHT22;50101;49.438;11.098;2022-10-16T12:28:30;19.40;73.30
38237;DHT22;50101;49.438;11.098;2022-10-16T12:31:05;19.40;73.50
38237;DHT22;50101;49.438;11.098;2022-10-16T12:33:39;19.30;73.30
38237;DHT22;50101;49.438;11.098;2022-10-16T12:36:30;19.40;73.50
38237;DHT22;50101;49.438;11.098;2022-10-16T12:38:57;19.40;72.80
38237;DHT22;50101;49.438;11.098;2022-10-16T12:41:32;19.40;73.40
38237;DHT22;50101;49.438;11.098;2022-10-16T12:44:00;19.30;73.50
38237;DHT22;50101;49.438;11.098;2022-10-16T12:49:28;19.30;73.50
38237;DHT22;50101;49.438;11.098;2022-10-16T12:51:55;19.30;73.50
38237;DHT22;50101;49.438;11.098;2022-10-16T12:54:31;19.30;73.10
38237;DHT22;50101;49.438;11.098;2022-10-16T12:57:28;19.30;73.70
38237;DHT22;50101;49.438;11.098;2022-10-16T13:00:20;19.40;74.40
38237;DHT22;50101;49.438;11.098;2022-10-16T13:06:07;19.40;73.50
38237;DHT22;50101;49.438;11.098;2022-10-16T13:23:13;19.50;74.60
38237;DHT22;50101;49.438;11.098;2022-10-16T13:26:00;19.50;74.10
38237;DHT22;50101;49.438;11.098;2022-10-16T13:28:32;19.40;73.30
38237;DHT22;50101;49.438;11.098;2022-10-16T13:31:00;19.40;73.90
38237;DHT22;50101;49.438;11.098;2022-10-16T13:33:41;19.40;73.80
38237;DHT22;50101;49.438;11.098;2022-10-16T13:36:45;19.40;73.80
38237;DHT22;50101;49.438;11.098;2022-10-16T13:42:12;19.40;73.80
38237;DHT22;50101;49.438;11.098;2022-10-16T13:44:44;19.40;73.70
38237;DHT22;50101;49.438;11.098;2022-10-16T13:49:43;19.40;73.60
38237;DHT22;50101;49.438;11.098;2022-10-16T13:52:18;19.40;73.60
38237;DHT22;50101;49.438;11.098;2022-10-16T13:54:45;19.40;73.50
38237;DHT22;50101;49.438;11.098;2022-10-16T13:57:14;19.40;73.40
38237;DHT22;50101;49.438;11.098;2022-10-16T13:59:54;19.50;73.40
38237;DHT22;50101;49.438;11.098;2022-10-16T14:02:29;19.40;73.30
38237;DHT22;50101;49.438;11.098;2022-10-16T14:04:57;19.40;73.20
38237;DHT22;50101;49.438;11.098;2022-10-16T14:07:27;19.50;73.30
38237;DHT22;50101;49.438;11.098;2022-10-16T14:09:55;19.50;73.30
38237;DHT22;50101;49.438;11.098;2022-10-16T14:12:23;19.40;73.20
38237;DHT22;50101;49.438;11.098;2022-10-16T14:14:54;19.40;73.00
38237;DHT22;50101;49.438;11.098;2022-10-16T14:17:22;19.40;72.40
38237;DHT22;50101;49.438;11.098;2022-10-16T14:19:53;19.40;72.40
38237;DHT22;50101;49.438;11.098;2022-10-16T14:22:33;19.40;73.00
38237;DHT22;50101;49.438;11.098;2022-10-16T14:25:01;19.40;73.10
38237;DHT22;50101;49.438;11.098;2022-10-16T14:27:34;19.50;73.00
38237;DHT22;50101;49.438;11.098;2022-10-16T14:32:53;19.40;73.00
38237;DHT22;50101;49.438;11.098;2022-10-16T14:35:25;19.40;73.00
38237;DHT22;50101;49.438;11.098;2022-10-16T14:37:53;19.40;72.50
38237;DHT22;50101;49.438;11.098;2022-10-16T14:40:24;19.40;73.10
38237;DHT22;50101;49.438;11.098;2022-10-16T14:42:52;19.40;73.00
38237;DHT22;50101;49.438;11.098;2022-10-16T14:45:21;19.40;73.10
38237;DHT22;50101;49.438;11.098;2022-10-16T14:47:51;19.40;73.00
38237;DHT22;50101;49.438;11.098;2022-10-16T14:50:19;19.40;72.40
38237;DHT22;50101;49.438;11.098;2022-10-16T14:52:45;19.40;73.00
38237;DHT22;50101;49.438;11.098;2022-10-16T14:55:12;19.40;73.00
38237;DHT22;50101;49.438;11.098;2022-10-16T14:57:40;19.40;73.10
38237;DHT22;50101;49.438;11.098;2022-10-16T15:00:19;19.40;72.60
38237;DHT22;50101;49.438;11.098;2022-10-16T15:02:48;19.40;73.10
38237;DHT22;50101;49.438;11.098;2022-10-16T15:05:18;19.40;73.10
38237;DHT22;50101;49.438;11.098;2022-10-16T15:07:46;19.40;73.90
38237;DHT22;50101;49.438;11.098;2022-10-16T15:10:13;19.40;73.60
38237;DHT22;50101;49.438;11.098;2022-10-16T15:12:41;19.40;73.90
38237;DHT22;50101;49.438;11.098;2022-10-16T15:17:50;19.50;74.70
38237;DHT22;50101;49.438;11.098;2022-10-16T15:20:26;19.50;74.00
38237;DHT22;50101;49.438;11.098;2022-10-16T15:22:53;19.40;74.50
38237;DHT22;50101;49.438;11.098;2022-10-16T15:27:54;19.40;74.60
38237;DHT22;50101;49.438;11.098;2022-10-16T15:30:21;19.40;74.50
38237;DHT22;50101;49.438;11.098;2022-10-16T15:32:47;19.40;74.30
38237;DHT22;50101;49.438;11.098;2022-10-16T15:35:14;19.40;74.30
38237;DHT22;50101;49.438;11.098;2022-10-16T15:37:40;19.40;74.20
38237;DHT22;50101;49.438;11.098;2022-10-16T15:40:09;19.40;74.30
38237;DHT22;50101;49.438;11.098;2022-10-16T15:42:36;19.40;74.20
38237;DHT22;50101;49.438;11.098;2022-10-16T15:45:03;19.40;74.60
38237;DHT22;50101;49.438;11.098;2022-10-16T15:47:30;19.40;73.80
38237;DHT22;50101;49.438;11.098;2022-10-16T15:49:57;19.40;74.50
38237;DHT22;50101;49.438;11.098;2022-10-16T15:52:24;19.40;74.00
38237;DHT22;50101;49.438;11.098;2022-10-16T15:54:51;19.40;74.40
38237;DHT22;50101;49.438;11.098;2022-10-16T15:57:19;19.40;74.20
38237;DHT22;50101;49.438;11.098;2022-10-16T15:59:46;19.50;74.00
38237;DHT22;50101;49.438;11.098;2022-10-16T16:02:13;19.40;74.50
38237;DHT22;50101;49.438;11.098;2022-10-16T16:04:40;19.40;74.50
38237;DHT22;50101;49.438;11.098;2022-10-16T16:07:11;19.40;74.40
38237;DHT22;50101;49.438;11.098;2022-10-16T16:09:37;19.40;74.30
38237;DHT22;50101;49.438;11.098;2022-10-16T16:12:04;19.40;74.20
38237;DHT22;50101;49.438;11.098;2022-10-16T16:14:31;19.40;74.20
38237;DHT22;50101;49.438;11.098;2022-10-16T16:16:58;19.40;74.10
38237;DHT22;50101;49.438;11.098;2022-10-16T16:21:54;19.40;73.60
38237;DHT22;50101;49.438;11.098;2022-10-16T16:24:21;19.40;74.10
38237;DHT22;50101;49.438;11.098;2022-10-16T16:26:48;19.40;74.00
38237;DHT22;50101;49.438;11.098;2022-10-16T16:29:15;19.30;73.30
38237;DHT22;50101;49.438;11.098;2022-10-16T16:31:42;19.30;74.60
38237;DHT22;50101;49.438;11.098;2022-10-16T16:34:09;19.40;73.40
38237;DHT22;50101;49.438;11.098;2022-10-16T16:36:36;19.30;73.90
38237;DHT22;50101;49.438;11.098;2022-10-16T16:39:03;19.40;74.00
38237;DHT22;50101;49.438;11.098;2022-10-16T16:41:30;19.40;74.00
38237;DHT22;50101;49.438;11.098;2022-10-16T16:44:06;19.40;74.10
38237;DHT22;50101;49.438;11.098;2022-10-16T16:46:34;19.40;74.00
38237;DHT22;50101;49.438;11.098;2022-10-16T16:49:02;19.40;73.10
38237;DHT22;50101;49.438;11.098;2022-10-16T16:51:29;19.30;73.60
38237;DHT22;50101;49.438;11.098;2022-10-16T16:53:56;19.30;73.50
38237;DHT22;50101;49.438;11.098;2022-10-16T16:56:23;19.30;73.20
38237;DHT22;50101;49.438;11.098;2022-10-16T16:58:52;19.30;73.70
38237;DHT22;50101;49.438;11.098;2022-10-16T17:01:20;19.30;73.70
38237;DHT22;50101;49.438;11.098;2022-10-16T17:03:50;19.40;73.80
38237;DHT22;50101;49.438;11.098;2022-10-16T17:06:20;19.30;73.90
38237;DHT22;50101;49.438;11.098;2022-10-16T17:08:48;19.40;74.10
38237;DHT22;50101;49.438;11.098;2022-10-16T17:11:20;19.40;74.10
38237;DHT22;50101;49.438;11.098;2022-10-16T17:13:47;19.40;74.30
38237;DHT22;50101;49.438;11.098;2022-10-16T17:16:26;19.40;74.50
38237;DHT22;50101;49.438;11.098;2022-10-16T17:18:53;19.30;74.70